Enchantment of the Seas — C6FZ7 — position and weather

sailwx.info

Track history (hours):
 
Tides and Currents Weather Stations Pressure Air Temp Water Temp Dewpoint Dewpoint Depression Visibility Wind Speed Wind Dir Waves Ship Positions

Enchantment of the Seas (Bahamas)

Last reported at 2020-Jan-25 00:58 UTC. Time now 2020-Jan-25 04:54 UTC.
Position N 29°08' W 094°27'.

Type: Passenger vessel. MMSI: 311733000.

Date/timePositionNaut miles runAvg speedWind from/ knotsBaromVisibWave heightAir tempDewpointWater temp
2020-Jan-25 00:58N 29°08' W 094°27'816.1
2020-Jan-25 00:30N 29°14' W 094°33'13 8.8
2020-Jan-24 23:00N 29°19' W 094°47'1 0.4
2020-Jan-24 20:27N 29°19' W 094°48'0 0.0
2020-Jan-24 20:00N 29°19' W 094°48'0 0.0
2020-Jan-24 19:30N 29°19' W 094°48'0 0.0
2020-Jan-24 16:00N 29°19' W 094°48'0 0.0
2020-Jan-24 15:00N 29°19' W 094°48'0 0.0
2020-Jan-24 14:00N 29°19' W 094°48'4 2.0
2020-Jan-24 12:00N 29°21' W 094°44'1313.0
2020-Jan-24 11:00N 29°14' W 094°31'1019.4
2020-Jan-24 10:30N 29°09' W 094°22'1018.8
2020-Jan-24 09:58N 29°03' W 094°12'6319.5
2020-Jan-24 06:46N 28°27' W 093°14'37519.9
2020-Jan-23 12:00N 23°48' W 088°36'21912.7 100 / 10 10.8 19.711.9
2020-Jan-22 18:46N 20°29' W 086°59'0 0.0
2020-Jan-22 14:58N 20°29' W 086°59'8 4.0
2020-Jan-22 13:01N 20°36' W 086°57'5112.8
2020-Jan-22 09:00N 21°24' W 086°36'47719.1 020 / 17 10.8 20.212.8
2020-Jan-21 08:00N 27°30' W 092°12'17515.9 030 / 25 10.8 12.8 6.9
2020-Jan-20 21:00N 29°19' W 094°48'0 0.0
2020-Jan-20 18:30N 29°19' W 094°48'0 0.0
2020-Jan-20 17:00N 29°19' W 094°48'0 0.0
2020-Jan-20 14:57N 29°18' W 094°48'2 1.1
2020-Jan-20 13:30N 29°19' W 094°47'16 9.9
2020-Jan-20 11:57N 29°14' W 094°30'5719.3
2020-Jan-20 09:00N 28°42' W 093°36'40318.3 030 / 30 10.8 12.0 2.9
2020-Jan-19 11:00N 23°42' W 088°36'21316.4 030 / 9 10.8 24.321.0
2020-Jan-18 21:59N 20°29' W 086°59'0 0.0
2020-Jan-18 21:26N 20°29' W 086°59'0 0.0
2020-Jan-18 20:29N 20°29' W 086°59'0 0.0
2020-Jan-18 19:29N 20°29' W 086°59'0 0.0
2020-Jan-18 17:59N 20°29' W 086°59'0 0.0
2020-Jan-18 17:29N 20°29' W 086°59'0 0.0
2020-Jan-18 16:29N 20°29' W 086°59'0 0.0
2020-Jan-18 15:29N 20°29' W 086°59'0 0.0
2020-Jan-18 14:56N 20°29' W 086°59'3 2.2
2020-Jan-18 13:30N 20°32' W 086°59'49117.2
2020-Jan-17 09:00N 27°18' W 092°00'16719.6 070 / 24 10.8 19.418.5
2020-Jan-17 00:30N 29°08' W 094°22'25 3.6
2020-Jan-16 17:29N 29°19' W 094°48'0 0.0
2020-Jan-16 16:59N 29°19' W 094°48'0 0.0
2020-Jan-16 13:59N 29°19' W 094°48'0 0.0
2020-Jan-16 12:59N 29°19' W 094°48'0 0.0
2020-Jan-16 12:29N 29°19' W 094°48'0 0.0
2020-Jan-16 11:59N 29°19' W 094°48'0 0.0
2020-Jan-16 10:59N 29°19' W 094°48'0 0.0
2020-Jan-16 09:26N 29°19' W 094°48'0 0.0
2020-Jan-16 08:29N 29°19' W 094°48'0 0.0
2020-Jan-16 04:29N 29°19' W 094°48'0 0.0
2020-Jan-16 03:59N 29°19' W 094°48'0 0.0
2020-Jan-16 03:29N 29°19' W 094°48'0 0.0
2020-Jan-16 02:29N 29°19' W 094°48'0 0.0
2020-Jan-16 01:29N 29°19' W 094°48'0 0.0
2020-Jan-15 23:29N 29°19' W 094°48'0 0.2
2020-Jan-15 22:30N 29°19' W 094°48'10 3.9
2020-Jan-15 19:56N 29°19' W 094°36'0 0.0
2020-Jan-15 19:26N 29°19' W 094°36'0 0.0
2020-Jan-15 17:59N 29°19' W 094°36'0 0.0
2020-Jan-15 14:00N 29°19' W 094°36'5 3.6
2020-Jan-15 12:30N 29°15' W 094°32'4 3.8
2020-Jan-15 11:27N 29°13' W 094°28'2814.6
2020-Jan-15 09:30N 28°57' W 094°01'  
Track history (hours):
 
Tides and Currents Weather Stations Pressure Air Temp Water Temp Dewpoint Dewpoint Depression Visibility Wind Speed Wind Dir Waves Ship Positions

Enchantment of the Seas (Bahamas)

Last reported at 2020-Jan-25 00:58 UTC. Time now 2020-Jan-25 04:54 UTC.
Position N 29°08' W 094°27'.

Type: Passenger vessel. MMSI: 311733000.

Date/timePositionNaut miles runAvg speedWind from/ knotsBaromVisibWave heightAir tempDewpointWater temp
2020-Jan-25 00:58N 29°08' W 094°27'816.1
2020-Jan-25 00:30N 29°14' W 094°33'13 8.8
2020-Jan-24 23:00N 29°19' W 094°47'1 0.4
2020-Jan-24 20:27N 29°19' W 094°48'0 0.0
2020-Jan-24 20:00N 29°19' W 094°48'0 0.0
2020-Jan-24 19:30N 29°19' W 094°48'0 0.0
2020-Jan-24 16:00N 29°19' W 094°48'0 0.0
2020-Jan-24 15:00N 29°19' W 094°48'0 0.0
2020-Jan-24 14:00N 29°19' W 094°48'4 2.0
2020-Jan-24 12:00N 29°21' W 094°44'1313.0
2020-Jan-24 11:00N 29°14' W 094°31'1019.4
2020-Jan-24 10:30N 29°09' W 094°22'1018.8
2020-Jan-24 09:58N 29°03' W 094°12'6319.5
2020-Jan-24 06:46N 28°27' W 093°14'37519.9
2020-Jan-23 12:00N 23°48' W 088°36'21912.7 100 / 10 10.8 19.711.9
2020-Jan-22 18:46N 20°29' W 086°59'0 0.0
2020-Jan-22 14:58N 20°29' W 086°59'8 4.0
2020-Jan-22 13:01N 20°36' W 086°57'5112.8
2020-Jan-22 09:00N 21°24' W 086°36'47719.1 020 / 17 10.8 20.212.8
2020-Jan-21 08:00N 27°30' W 092°12'17515.9 030 / 25 10.8 12.8 6.9
2020-Jan-20 21:00N 29°19' W 094°48'0 0.0
2020-Jan-20 18:30N 29°19' W 094°48'0 0.0
2020-Jan-20 17:00N 29°19' W 094°48'0 0.0
2020-Jan-20 14:57N 29°18' W 094°48'2 1.1
2020-Jan-20 13:30N 29°19' W 094°47'16 9.9
2020-Jan-20 11:57N 29°14' W 094°30'5719.3
2020-Jan-20 09:00N 28°42' W 093°36'40318.3 030 / 30 10.8 12.0 2.9
2020-Jan-19 11:00N 23°42' W 088°36'21316.4 030 / 9 10.8 24.321.0
2020-Jan-18 21:59N 20°29' W 086°59'0 0.0
2020-Jan-18 21:26N 20°29' W 086°59'0 0.0
2020-Jan-18 20:29N 20°29' W 086°59'0 0.0
2020-Jan-18 19:29N 20°29' W 086°59'0 0.0
2020-Jan-18 17:59N 20°29' W 086°59'0 0.0
2020-Jan-18 17:29N 20°29' W 086°59'0 0.0
2020-Jan-18 16:29N 20°29' W 086°59'0 0.0
2020-Jan-18 15:29N 20°29' W 086°59'0 0.0
2020-Jan-18 14:56N 20°29' W 086°59'3 2.2
2020-Jan-18 13:30N 20°32' W 086°59'49117.2
2020-Jan-17 09:00N 27°18' W 092°00'16719.6 070 / 24 10.8 19.418.5
2020-Jan-17 00:30N 29°08' W 094°22'25 3.6
2020-Jan-16 17:29N 29°19' W 094°48'0 0.0
2020-Jan-16 16:59N 29°19' W 094°48'0 0.0
2020-Jan-16 13:59N 29°19' W 094°48'0 0.0
2020-Jan-16 12:59N 29°19' W 094°48'0 0.0
2020-Jan-16 12:29N 29°19' W 094°48'0 0.0
2020-Jan-16 11:59N 29°19' W 094°48'0 0.0
2020-Jan-16 10:59N 29°19' W 094°48'0 0.0
2020-Jan-16 09:26N 29°19' W 094°48'0 0.0
2020-Jan-16 08:29N 29°19' W 094°48'0 0.0
2020-Jan-16 04:29N 29°19' W 094°48'0 0.0
2020-Jan-16 03:59N 29°19' W 094°48'0 0.0
2020-Jan-16 03:29N 29°19' W 094°48'0 0.0
2020-Jan-16 02:29N 29°19' W 094°48'0 0.0
2020-Jan-16 01:29N 29°19' W 094°48'0 0.0
2020-Jan-15 23:29N 29°19' W 094°48'0 0.2
2020-Jan-15 22:30N 29°19' W 094°48'10 3.9
2020-Jan-15 19:56N 29°19' W 094°36'0 0.0
2020-Jan-15 19:26N 29°19' W 094°36'0 0.0
2020-Jan-15 17:59N 29°19' W 094°36'0 0.0
2020-Jan-15 14:00N 29°19' W 094°36'5 3.6
2020-Jan-15 12:30N 29°15' W 094°32'4 3.8
2020-Jan-15 11:27N 29°13' W 094°28'2814.6
2020-Jan-15 09:30N 28°57' W 094°01'  

Dump ship's entire track history